IY Observations

LIBD 192020Z 16003KT 130V190 CAVOK 17/15 Q1018 LIBR 192020Z 17005KT CAVOK 19/15 Q1019 LICC 192020Z 02005KT CAVOK 22/19 Q1019 LICJ 192020Z VRB01KT CAVOK 21/17 Q1017 LIEA 192020Z VRB02KT CAVOK 16/13 Q1013 LIEE 192020Z 16006KT CAVOK 22/18 Q1015 LIEO 192020Z VRB02KT CAVOK 18/16 Q1014 LIMC 192020Z 13011KT 9999 -RA OVC035 16/16 Q1015 NOSIG LIME 192020Z 04005KT 9999 RA SCT040 BKN075 16/15 Q1016 NOSIG LIMF 192020Z 29003KT 250V330 5000 BR BKN006 OVC015 15/14 Q1015 LIMJ 192020Z 15019KT 5000 RA FEW009 SCT025 BKN040 20/18 Q1015 LIPE 192020Z 19005KT CAVOK 18/14 Q1015 LIPH 192020Z 03003KT 350V060 9999 FEW020 SCT050 18/16 Q1017 LIPQ 192020Z 09003KT 9999 FEW020 SCT060 18/16 Q1017 LIPR 192020Z VRB01KT CAVOK 16/12 Q1017 LIPX 192020Z 06003KT 9999 FEW070 16/14 Q1016 LIPZ 192020Z 04006KT 9999 SCT015 BKN050 17/15 Q1017 NOSIG LIRA 192020Z 12004KT CAVOK 16/13 Q1018 LIRF 192020Z 09005KT 070V130 CAVOK 16/14 Q1018 NOSIG LIRN 192020Z 07004KT CAVOK 17/14 Q1019 NOSIG LIRP 192015Z 10007KT 9999 FEW035 SCT040 17/15 Q1016 NOSIG LIRQ 192020Z VRB02KT 9999 SCT060 19/14 Q1018 LIBA 191955Z 07006KT CAVOK 19/19 Q1017 RMK SKC VIS MIN 9999 WIND THR11 07007KT WIND THR29 /////KT BLU LIBD 191950Z 17004KT CAVOK 18/15 Q1018 LIBN 191955Z 13003KT CAVOK 18/16 Q1019 RMK SKC VIS MIN 9999 WIND THR14 13004KT WIND THR32 14002KT BLU LIBP 191950Z 22004KT CAVOK 14/14 Q1018 LIBQ 191955Z 27012KT CAVOK 10/10 Q1020 RMK SKC MON LIB VAL NIL VIS MIN 9999 LIBR 191950Z 18005KT CAVOK 20/16 Q1019 LIBV 191955Z 17007KT 8000 NSC 15/14 Q1018 RMK SKC VIS MIN 8000 WIND THR32 16008KT WIND THR14 17006KT BLU LICA 191950Z 04003KT CAVOK 15/14 Q1019 LICC 191950Z 04004KT CAVOK 23/20 Q1019 LICD 191950Z 15011KT CAVOK 24/19 Q1018 LICF 191955Z 24004KT 9999 FEW030 21/17 Q1018 RMK FEW QUK / QUL / VIS MAR 12 KM MON INVIS NC VIS MIN 9999 LICJ 191950Z VRB03KT CAVOK 21/17 Q1017 LICR 191950Z 10002KT CAVOK 21/17 Q1019 LICT 191955Z 14012KT CAVOK 21/18 Q1017 LICT 191955Z 14012KT CAVOK 21/18 Q1017 RMK SKC VIS MIN 9999 WIND THR13 12009KT BLU LICZ 191955Z 27005KT 9999 FEW020 19/19 Q1019 RMK FEW VIS MIN 9999 WIND THR28 27005KT WIND THR10 27005KT A3011 BLU LIEA 191950Z VRB02KT CAVOK 16/13 Q1013 LIED 191955Z 10005KT 9999 FEW025 20/17 Q1013 RMK FEW VIS MIN 9999 WIND THR35 11005KT WIND THR17 /////KT BLU LIEE 191950Z 15008KT 9999 FEW020 22/19 Q1015 LIEO 191950Z VRB01KT CAVOK 19/16 Q1014 LIMC 191950Z 12008KT 9999 OVC035 16/16 Q1015 NOSIG LIME 191950Z 03005KT 9999 SCT040 BKN075 16/15 Q1016 NOSIG LIMF 191950Z 33003KT 300V360 6000 SCT006 BKN015 15/14 Q1015 LIMH 191955Z 19025G35KT 0100 -SN FZFG VV/// M03/M04 Q1019 RMK MON INVIS VAL INVIS VIS MIN 0100 LIMJ 191950Z 15012KT 9999 FEW014 SCT028 BKN060 20/18 Q1015 LIMK 191955Z 31002KT 0100 -RA FG VV001 12/12 Q1015 RMK VAL INVIS VIS MIN 0100 LIMP 191950Z 13004KT 100V160 2500 BR SCT010 15/15 Q1015 LIMU 191955Z 18008KT 9999 SCT010 BKN020 18/17 Q1015 RMK BKN QUK / QUL / VIS MAR 10 KM VIS MIN 9999 LIPA 191955Z 02005KT 9999 SCT030 BKN040 16/14 Q1017 RMK OVC VIS MIN 9999 WIND THR05 /////KT WIND THR23 /////KT A3004 BLU LIPB 191950Z VRB02KT 9999 BKN055 14/14 Q1016 LIPB 191950Z VRB02KT 9999 BKN055 14/14 Q1016 RMK MON INVIS LIPC 191955Z 17004KT CAVOK 15/13 Q1016 LIPC 191955Z 17004KT CAVOK 15/13 Q1016 RMK SKC VIS MIN 9999 WIND THR11 /////KT WIND THR29 17003KT BLU LIPE 191950Z VRB02KT CAVOK 17/13 Q1015 LIPH 191950Z 02004KT 350V050 9999 FEW020 SCT050 17/16 Q1017 LIPL 191955Z 07007KT 9999 FEW050 SCT080 18/14 Q1015 RMK BKN VIS MIN 9999 WIND THR31 06006KT WIND THR13 07007KT BLU LIPO 191950Z 06006KT 9999 SCT050 17/14 Q1016 LIPQ 191950Z VRB02KT 9999 FEW020 SCT060 17/16 Q1017 LIPR 191950Z VRB01KT CAVOK 15/12 Q1016 LIPS 191955Z /////KT 7000 FEW040 BKN050 18/18 Q1017 RMK BKN VIS MIN 7000 WIND THR26 01005KT WIND THR08 04005KT WHT LIPX 191950Z 07005KT 9999 FEW070 17/14 Q1016 LIPY 191950Z 19004KT CAVOK 17/14 Q1017 LIPZ 191950Z 05006KT 9999 SCT016 SCT040 17/16 Q1016 NOSIG LIRA 191950Z 14005KT CAVOK 18/13 Q1018 LIRE 191955Z 09007KT CAVOK 18/16 Q1018 RMK SKC VIS MIN 9999 WIND THR13 12005KT WIND THR31 /////KT BLU LIRF 191950Z 11004KT CAVOK 17/14 Q1018 NOSIG LIRK 191955Z AUTO 20004KT 160V230 //// 09/02 Q1024 LIRM 191955Z 04002KT CAVOK 19/18 Q1018 LIRN 191950Z 07003KT CAVOK 18/15 Q1019 NOSIG LIRP 191945Z 11006KT 9999 FEW035 SCT040 17/15 Q1016 NOSIG LIRQ 191950Z 13004KT 100V160 9999 SCT050 19/14 Q1017 LIRS 191955Z 12004KT CAVOK 16/13 Q1017 LIRS 191955Z 12004KT CAVOK 16/13 Q1017 RMK FEW FEW200 VIS MIN 9999 WIND THR03 11005KT WIND THR21 13004KT BLU LIRZ 191950Z 01004KT CAVOK 13/11 Q1018 LIVC 191955Z 12008KT 0000 FG VV/// 07/06 Q1020 RMK MON INVIS VAL INVIS VIS MIN 0000 LIVE 191955Z 18007KT 0000 FG VV000 08/05 Q1016 RMK VIS MIN 0000 LIVF 191955Z 20003KT CAVOK 16/10 Q1018 RMK FEW FEW200 MON LIB VAL NIL VIS MIN 9999 LIVM 191955Z AUTO VRB02KT //// 19/18 Q1016 LIVP 191955Z 18024KT 0000 -RA FG VV/// 05/05 Q1018 RERA RMK MON INVIS VAL INVIS VIS MIN 0000 LIVT 191955Z /////KT 9999 FEW030 18/16 Q1017 RMK BKN SCT070 QUK / QUL / VIS MAR 20 KM VIS MIN 9999